Time;durP1;ratioP1;P1;durP2;ratioP2;P2;SDS_P1;SDS_P2;PMS_P1;PMS_P2;Temp;Humidity;BMP_temperature;BMP_pressure;BME280_temperature;BME280_humidity;BME280_pressure;Samples;Min_cycle;Max_cycle;Signal;HPM_P1;HPM_P2
2021/07/06 00:02:17;;;;;;;13.48;6.65;;;666.00;1356.80;;;;;;5035195;28;20028;-54
2021/07/06 00:04:43;;;;;;;11.15;6.43;;;666.00;1356.80;;;;;;5035091;28;20029;-55
2021/07/06 00:07:12;;;;;;;9.13;6.47;;;666.00;1356.80;;;;;;5034692;28;20025;-55
2021/07/06 00:09:38;;;;;;;10.50;6.53;;;666.00;1356.80;;;;;;5034487;28;20119;-56
2021/07/06 00:12:04;;;;;;;9.15;6.13;;;665.90;1356.80;;;;;;5034952;28;20030;-55
2021/07/06 00:14:30;;;;;;;7.60;6.15;;;665.80;1382.40;;;;;;5034650;28;20029;-55
2021/07/06 00:16:56;;;;;;;8.80;6.40;;;665.80;1382.40;;;;;;5033960;28;20026;-55
2021/07/06 00:19:22;;;;;;;12.35;6.53;;;665.70;1382.40;;;;;;5034881;28;20363;-55
2021/07/06 00:21:48;;;;;;;8.20;6.30;;;665.70;1382.40;;;;;;5035319;28;20030;-55
2021/07/06 00:24:14;;;;;;;13.07;6.47;;;665.70;1382.40;;;;;;5034965;28;20040;-55
2021/07/06 00:26:40;;;;;;;8.57;6.38;;;665.70;1382.40;;;;;;5034518;28;20108;-52
2021/07/06 00:29:06;;;;;;;12.00;6.95;;;665.60;1408.00;;;;;;5034613;28;20030;-54
2021/07/06 00:31:32;;;;;;;8.90;6.15;;;640.90;1382.40;;;;;;5034605;28;20521;-54
2021/07/06 00:33:57;;;;;;;11.00;6.30;;;640.90;1382.40;;;;;;5034238;28;20044;-49
2021/07/06 00:36:24;;;;;;;12.05;6.82;;;640.80;1382.40;;;;;;5034256;28;20025;-55
2021/07/06 00:38:50;;;;;;;8.18;6.20;;;640.70;1382.40;;;;;;5034457;28;20025;-54
2021/07/06 00:41:16;;;;;;;9.52;6.97;;;640.70;1408.00;;;;;;5034356;28;20026;-54
2021/07/06 00:43:41;;;;;;;10.43;6.43;;;640.60;1408.00;;;;;;5034116;28;20500;-55
2021/07/06 00:46:07;;;;;;;9.38;6.25;;;640.60;1408.00;;;;;;5033985;28;20080;-55
2021/07/06 00:48:34;;;;;;;13.55;6.38;;;640.60;1408.00;;;;;;5033937;28;20097;-55
2021/07/06 00:51:00;;;;;;;12.93;6.97;;;640.60;1408.00;;;;;;5033847;28;20443;-55
2021/07/06 00:53:26;;;;;;;10.82;6.53;;;640.60;1408.00;;;;;;5033899;28;20025;-55
2021/07/06 00:55:55;;;;;;;8.38;6.60;;;640.60;1408.00;;;;;;5034640;28;20026;-55
2021/07/06 00:58:22;;;;;;;9.38;7.13;;;640.60;1408.00;;;;;;5033932;28;20147;-55
2021/07/06 01:00:48;;;;;;;9.63;6.75;;;640.50;1408.00;;;;;;5033777;28;20022;-55
2021/07/06 01:03:14;;;;;;;12.57;7.53;;;640.50;1408.00;;;;;;5034070;28;20025;-55
2021/07/06 01:05:41;;;;;;;9.73;7.22;;;640.50;1408.00;;;;;;5033659;28;20049;-55
2021/07/06 01:08:07;;;;;;;11.95;6.75;;;640.30;1433.60;;;;;;5033433;28;20057;-54
2021/07/06 01:10:33;;;;;;;10.48;6.82;;;640.30;1433.60;;;;;;5033612;28;20037;-54
2021/07/06 01:13:00;;;;;;;8.90;7.00;;;640.30;1433.60;;;;;;5033911;28;20025;-55
2021/07/06 01:15:28;;;;;;;9.95;7.00;;;640.30;1433.60;;;;;;5033712;28;20497;-55
2021/07/06 01:18:07;;;;;;;10.63;6.70;;;640.30;1433.60;;;;;;5033839;28;20025;-56
2021/07/06 01:21:03;;;;;;;10.55;6.47;;;640.20;1433.60;;;;;;5033841;28;20045;-54
2021/07/06 01:23:29;;;;;;;8.88;7.13;;;640.10;1433.60;;;;;;5030532;28;20079;-54
2021/07/06 01:25:58;;;;;;;10.98;6.70;;;640.10;1459.20;;;;;;5033774;28;20418;-54
2021/07/06 01:28:24;;;;;;;11.82;6.93;;;640.10;1433.60;;;;;;5033473;28;20064;-55
2021/07/06 01:30:51;;;;;;;10.25;7.10;;;640.10;1459.20;;;;;;5033625;28;20041;-55
2021/07/06 01:33:25;;;;;;;12.45;7.15;;;640.00;1459.20;;;;;;5033464;28;20139;-55
2021/07/06 01:35:52;;;;;;;10.57;7.07;;;640.00;1459.20;;;;;;5033411;28;20030;-55
2021/07/06 01:38:18;;;;;;;10.52;7.05;;;640.00;1459.20;;;;;;5033278;28;20156;-55
2021/07/06 01:40:44;;;;;;;7.95;7.15;;;615.30;1459.20;;;;;;5033637;28;20382;-54
2021/07/06 01:43:10;;;;;;;10.32;7.55;;;615.30;1459.20;;;;;;5033577;28;20074;-54
2021/07/06 01:45:36;;;;;;;13.13;7.72;;;615.30;1459.20;;;;;;5033580;28;20380;-55
2021/07/06 01:48:03;;;;;;;8.82;7.25;;;615.30;1459.20;;;;;;5033585;28;20025;-55
2021/07/06 01:50:32;;;;;;;12.43;7.13;;;615.30;1459.20;;;;;;5033086;28;20482;-55
2021/07/06 01:53:01;;;;;;;10.77;7.35;;;615.20;1459.20;;;;;;5033150;28;20466;-54
2021/07/06 01:55:30;;;;;;;15.07;7.05;;;615.20;1484.80;;;;;;5033427;28;20032;-55
2021/07/06 01:57:58;;;;;;;10.85;7.72;;;615.20;1484.80;;;;;;5033458;28;20022;-55
2021/07/06 02:00:29;;;;;;;11.85;7.00;;;615.10;1484.80;;;;;;5033128;28;20028;-54
2021/07/06 02:02:59;;;;;;;7.93;7.13;;;615.10;1484.80;;;;;;5033185;28;20032;-54
2021/07/06 02:05:33;;;;;;;9.57;7.15;;;615.10;1484.80;;;;;;5033449;28;20068;-55
2021/07/06 02:07:59;;;;;;;13.02;7.25;;;615.10;1510.40;;;;;;5033240;28;20022;-55
2021/07/06 02:10:27;;;;;;;12.90;7.32;;;615.10;1484.80;;;;;;5032999;28;20470;-54
2021/07/06 02:12:53;;;;;;;12.75;7.28;;;615.00;1484.80;;;;;;5032897;28;20029;-55
2021/07/06 02:15:19;;;;;;;10.23;7.32;;;615.00;1484.80;;;;;;5015316;28;20025;-55
2021/07/06 02:17:46;;;;;;;16.98;7.93;;;615.00;1484.80;;;;;;5033273;28;20394;-55
2021/07/06 02:20:17;;;;;;;10.95;7.40;;;615.00;1510.40;;;;;;5032938;28;20484;-55
2021/07/06 02:22:44;;;;;;;13.57;7.30;;;615.00;1510.40;;;;;;5033362;28;20032;-54
2021/07/06 02:25:11;;;;;;;12.60;7.53;;;614.90;1510.40;;;;;;5032976;28;20030;-54
2021/07/06 02:27:38;;;;;;;11.60;7.35;;;614.90;1510.40;;;;;;5015221;28;20025;-55
2021/07/06 02:30:11;;;;;;;12.02;7.25;;;614.90;1510.40;;;;;;5032769;28;20053;-55
2021/07/06 02:32:38;;;;;;;10.50;7.30;;;614.90;1510.40;;;;;;5032923;28;20378;-55
2021/07/06 02:35:08;;;;;;;13.38;7.45;;;614.90;1510.40;;;;;;5033106;28;20036;-54
2021/07/06 02:37:35;;;;;;;11.80;7.40;;;614.90;1510.40;;;;;;5033174;28;20017;-55
2021/07/06 02:40:07;;;;;;;13.50;7.80;;;614.90;1510.40;;;;;;5035193;28;20040;-54
2021/07/06 02:42:33;;;;;;;9.75;7.80;;;614.90;1536.00;;;;;;5036634;28;20055;-54
2021/07/06 02:44:59;;;;;;;13.55;7.80;;;614.90;1510.40;;;;;;5036378;28;20470;-55
2021/07/06 02:47:25;;;;;;;10.50;8.63;;;614.80;1536.00;;;;;;5037091;28;20026;-55
2021/07/06 02:49:51;;;;;;;10.18;7.93;;;614.80;1536.00;;;;;;5036083;28;20037;-54
2021/07/06 02:52:17;;;;;;;9.43;7.30;;;614.80;1510.40;;;;;;5036177;28;20373;-54
2021/07/06 02:54:43;;;;;;;11.80;7.85;;;614.90;1536.00;;;;;;5036420;28;20022;-54
2021/07/06 02:57:10;;;;;;;10.07;7.35;;;614.90;1536.00;;;;;;5036386;28;20027;-55
2021/07/06 02:59:37;;;;;;;13.45;7.90;;;614.80;1510.40;;;;;;5036348;28;20390;-55
2021/07/06 03:02:04;;;;;;;11.77;8.10;;;614.80;1536.00;;;;;;5036359;28;20049;-54
2021/07/06 03:04:30;;;;;;;15.40;7.30;;;614.80;1510.40;;;;;;5035948;28;20474;-55
2021/07/06 03:06:56;;;;;;;10.80;7.75;;;614.80;1536.00;;;;;;5036246;28;20088;-55
2021/07/06 03:09:22;;;;;;;11.45;8.23;;;614.80;1536.00;;;;;;5035650;28;20367;-55
2021/07/06 03:11:48;;;;;;;12.25;8.02;;;614.80;1536.00;;;;;;5036119;28;20026;-54
2021/07/06 03:14:14;;;;;;;15.10;7.90;;;614.70;1561.60;;;;;;5035796;28;20037;-54
2021/07/06 03:16:39;;;;;;;9.50;8.38;;;614.60;1561.60;;;;;;5035995;28;20033;-55
2021/07/06 03:19:05;;;;;;;13.07;8.50;;;614.60;1561.60;;;;;;5036017;28;20049;-55
2021/07/06 03:21:31;;;;;;;12.85;8.20;;;614.60;1561.60;;;;;;5035931;28;20030;-55
2021/07/06 03:23:57;;;;;;;9.35;7.78;;;614.70;1587.20;;;;;;5035580;28;20025;-54
2021/07/06 03:26:23;;;;;;;11.88;7.75;;;614.60;1587.20;;;;;;5035571;28;20049;-54
2021/07/06 03:28:49;;;;;;;15.20;8.20;;;614.60;1561.60;;;;;;5035594;28;20022;-55
2021/07/06 03:31:15;;;;;;;9.77;7.70;;;614.60;1561.60;;;;;;5035732;28;20116;-54
2021/07/06 03:33:41;;;;;;;12.68;7.80;;;614.60;1561.60;;;;;;5035489;28;20017;-55
2021/07/06 03:36:06;;;;;;;12.20;7.38;;;614.60;1561.60;;;;;;5035677;28;20030;-55
2021/07/06 03:38:32;;;;;;;10.27;7.38;;;614.60;1561.60;;;;;;5035348;28;20056;-55
2021/07/06 03:40:58;;;;;;;11.02;8.10;;;614.60;1561.60;;;;;;5035564;28;20433;-55
2021/07/06 03:43:24;;;;;;;14.35;7.82;;;614.60;1561.60;;;;;;5035247;28;20022;-55
2021/07/06 03:45:50;;;;;;;9.60;7.03;;;614.60;1561.60;;;;;;5035514;28;20029;-55
2021/07/06 03:48:16;;;;;;;9.40;7.00;;;614.60;1561.60;;;;;;5035102;28;20030;-55
2021/07/06 03:50:42;;;;;;;14.40;7.53;;;614.60;1561.60;;;;;;5035093;28;20084;-55
2021/07/06 03:53:08;;;;;;;13.80;7.28;;;614.60;1561.60;;;;;;5035126;28;20029;-55
2021/07/06 03:55:34;;;;;;;11.27;7.03;;;614.60;1561.60;;;;;;5035868;28;20044;-54
2021/07/06 03:58:00;;;;;;;12.38;7.45;;;614.70;1561.60;;;;;;5035241;28;20028;-54
2021/07/06 04:00:29;;;;;;;9.38;7.13;;;614.70;1561.60;;;;;;5035141;28;20033;-52
2021/07/06 04:02:55;;;;;;;17.65;8.07;;;614.70;1561.60;;;;;;5034870;28;20028;-54
2021/07/06 04:05:21;;;;;;;10.73;6.97;;;614.70;1561.60;;;;;;5035855;28;20083;-55
2021/07/06 04:07:48;;;;;;;10.40;7.28;;;614.70;1561.60;;;;;;5035046;28;20374;-55
2021/07/06 04:10:18;;;;;;;10.68;7.50;;;614.70;1561.60;;;;;;5034498;28;20045;-54
2021/07/06 04:12:47;;;;;;;10.00;6.80;;;614.70;1561.60;;;;;;5035526;28;20041;-55
2021/07/06 04:15:14;;;;;;;21.38;7.13;;;614.70;1561.60;;;;;;5034614;28;20030;-54
2021/07/06 04:17:40;;;;;;;15.73;6.75;;;614.70;1561.60;;;;;;5034888;28;20021;-55
2021/07/06 04:20:08;;;;;;;18.40;7.05;;;614.70;1561.60;;;;;;5034860;28;20033;-55
2021/07/06 04:22:35;;;;;;;11.55;6.53;;;614.70;1561.60;;;;;;5034735;28;20385;-55
2021/07/06 04:25:01;;;;;;;12.00;6.88;;;614.70;1561.60;;;;;;5034409;28;20026;-55
2021/07/06 04:27:27;;;;;;;11.75;6.70;;;614.70;1561.60;;;;;;5034399;28;20032;-55
2021/07/06 04:29:53;;;;;;;15.38;7.03;;;614.70;1561.60;;;;;;5034256;28;20502;-55
2021/07/06 04:32:19;;;;;;;8.45;7.10;;;614.80;1561.60;;;;;;5034615;28;20088;-55
2021/07/06 04:34:45;;;;;;;15.20;7.32;;;614.80;1561.60;;;;;;5034284;28;20076;-55
2021/07/06 04:37:12;;;;;;;13.93;6.78;;;614.80;1561.60;;;;;;5034375;28;20029;-55
2021/07/06 04:39:38;;;;;;;11.07;7.20;;;614.90;1561.60;;;;;;5034163;28;20029;-54
2021/07/06 04:42:05;;;;;;;7.88;6.47;;;614.90;1561.60;;;;;;5034870;28;20029;-55
2021/07/06 04:44:31;;;;;;;13.77;6.38;;;614.90;1561.60;;;;;;5034412;28;20057;-55
2021/07/06 04:46:57;;;;;;;23.45;7.85;;;615.00;1561.60;;;;;;5034310;28;20490;-54
2021/07/06 04:49:23;;;;;;;12.75;6.53;;;615.00;1561.60;;;;;;5033899;28;20505;-55
2021/07/06 04:51:49;;;;;;;10.32;6.38;;;615.10;1536.00;;;;;;5033954;28;20029;-54
2021/07/06 04:54:15;;;;;;;13.50;6.57;;;615.10;1536.00;;;;;;5034023;28;20424;-55
2021/07/06 04:56:41;;;;;;;8.45;6.05;;;615.10;1536.00;;;;;;5034224;28;20108;-54
2021/07/06 04:59:07;;;;;;;9.02;5.90;;;615.10;1536.00;;;;;;5034187;28;20089;-55
2021/07/06 05:01:33;;;;;;;7.97;5.53;;;615.20;1536.00;;;;;;5033268;28;20381;-54
2021/07/06 05:03:59;;;;;;;8.23;6.13;;;615.20;1536.00;;;;;;5033778;28;20028;-54
2021/07/06 05:06:25;;;;;;;11.13;6.80;;;615.20;1536.00;;;;;;5033723;28;20030;-54
2021/07/06 05:08:51;;;;;;;12.23;6.93;;;615.20;1510.40;;;;;;5033713;28;20033;-55
2021/07/06 05:11:17;;;;;;;14.07;6.68;;;615.30;1510.40;;;;;;5033863;28;20485;-55
2021/07/06 05:13:43;;;;;;;11.55;6.70;;;615.30;1536.00;;;;;;5033895;28;20426;-55
2021/07/06 05:16:09;;;;;;;8.52;6.07;;;615.30;1510.40;;;;;;5033631;28;20042;-55
2021/07/06 05:18:35;;;;;;;10.23;6.88;;;615.30;1536.00;;;;;;5033904;28;20108;-54
2021/07/06 05:21:01;;;;;;;11.25;6.70;;;615.30;1510.40;;;;;;5033820;28;20109;-55
2021/07/06 05:23:27;;;;;;;14.18;7.55;;;615.30;1536.00;;;;;;5033832;28;20500;-55
2021/07/06 05:25:53;;;;;;;16.13;8.75;;;615.30;1536.00;;;;;;5033732;28;20064;-55
2021/07/06 05:28:18;;;;;;;11.18;7.35;;;640.00;1536.00;;;;;;5033418;28;20021;-55
2021/07/06 05:30:44;;;;;;;139.88;98.30;;;640.00;1510.40;;;;;;5033611;28;20069;-55
2021/07/06 05:33:11;;;;;;;23.58;15.35;;;640.00;1536.00;;;;;;5032693;28;20683;-54
2021/07/06 05:35:37;;;;;;;14.23;7.60;;;640.10;1510.40;;;;;;5018936;28;20025;-54
2021/07/06 05:38:05;;;;;;;17.60;7.65;;;640.00;1536.00;;;;;;5033148;28;20487;-54
2021/07/06 05:40:31;;;;;;;15.35;6.40;;;640.00;1536.00;;;;;;5032864;28;20473;-54
2021/07/06 05:42:56;;;;;;;16.05;6.95;;;640.10;1536.00;;;;;;5032606;28;20056;-53
2021/07/06 05:45:22;;;;;;;13.80;6.35;;;640.10;1510.40;;;;;;5032631;28;20056;-55
2021/07/06 05:47:48;;;;;;;12.32;7.68;;;640.10;1510.40;;;;;;5033007;28;20029;-53
2021/07/06 05:50:16;;;;;;;10.23;5.97;;;640.20;1510.40;;;;;;5032925;28;20061;-53
2021/07/06 05:52:42;;;;;;;9.18;5.97;;;640.30;1510.40;;;;;;5032543;28;20017;-51
2021/07/06 05:55:09;;;;;;;6.65;5.60;;;640.30;1510.40;;;;;;5032708;28;20522;-54
2021/07/06 05:57:36;;;;;;;13.80;6.07;;;640.50;1510.40;;;;;;5032640;28;20053;-54
2021/07/06 06:00:08;;;;;;;14.25;5.72;;;640.50;1510.40;;;;;;5032495;28;20030;-56
2021/07/06 06:02:34;;;;;;;6.68;5.53;;;640.50;1484.80;;;;;;5030158;28;20022;-55
2021/07/06 06:05:00;;;;;;;6.05;5.15;;;640.60;1484.80;;;;;;5032940;28;20036;-53
2021/07/06 06:07:26;;;;;;;11.73;4.80;;;640.60;1484.80;;;;;;5032915;28;20029;-55
2021/07/06 06:09:52;;;;;;;13.55;5.30;;;640.70;1459.20;;;;;;5032291;28;20049;-55
2021/07/06 06:12:18;;;;;;;10.48;4.63;;;640.80;1484.80;;;;;;5032642;28;20091;-52
2021/07/06 06:14:44;;;;;;;9.38;5.30;;;640.80;1459.20;;;;;;5035028;28;20060;-55
2021/07/06 06:17:10;;;;;;;8.82;4.78;;;665.60;1484.80;;;;;;5036811;28;20029;-54
2021/07/06 06:19:36;;;;;;;5.88;4.95;;;665.60;1484.80;;;;;;5036811;28;20029;-55
2021/07/06 06:22:02;;;;;;;12.93;5.22;;;665.70;1459.20;;;;;;5036992;28;20033;-55
2021/07/06 06:24:28;;;;;;;12.15;5.32;;;665.80;1484.80;;;;;;5036915;28;20040;-54
2021/07/06 06:26:54;;;;;;;42.00;30.70;;;666.00;1459.20;;;;;;5036535;28;20029;-55
2021/07/06 06:29:20;;;;;;;21.60;6.68;;;666.10;1459.20;;;;;;5036808;28;20091;-54
2021/07/06 06:31:46;;;;;;;22.38;8.88;;;666.10;1433.60;;;;;;5036484;28;20417;-54
2021/07/06 06:34:13;;;;;;;16.27;6.07;;;666.30;1433.60;;;;;;5036453;28;20035;-56
2021/07/06 06:36:38;;;;;;;20.98;7.65;;;666.30;1433.60;;;;;;5036531;28;20041;-54
2021/07/06 06:39:05;;;;;;;12.82;6.43;;;666.40;1408.00;;;;;;5035949;28;20374;-55
2021/07/06 06:41:32;;;;;;;23.05;8.25;;;666.50;1408.00;;;;;;5036288;28;20078;-54
2021/07/06 06:43:58;;;;;;;17.65;7.18;;;691.20;1408.00;;;;;;5037164;28;20021;-55
2021/07/06 06:46:25;;;;;;;9.45;6.32;;;691.40;1382.40;;;;;;5036612;28;20071;-55
2021/07/06 06:48:51;;;;;;;19.30;8.05;;;691.40;1382.40;;;;;;5036611;28;20100;-55
2021/07/06 06:51:17;;;;;;;16.33;6.68;;;691.50;1382.40;;;;;;5036034;28;20099;-55
2021/07/06 06:53:43;;;;;;;14.40;7.13;;;691.70;1382.40;;;;;;5036227;28;20025;-54
2021/07/06 06:56:09;;;;;;;7.07;3.97;;;691.70;1382.40;;;;;;5036426;28;20026;-54
2021/07/06 06:58:35;;;;;;;13.23;6.38;;;691.80;1356.80;;;;;;5035820;28;20428;-55
2021/07/06 07:01:00;;;;;;;10.52;5.70;;;691.90;1356.80;;;;;;5036224;28;20033;-54
2021/07/06 07:03:26;;;;;;;15.15;6.20;;;692.00;1356.80;;;;;;5035951;28;20112;-54
2021/07/06 07:05:53;;;;;;;5.13;4.15;;;692.10;1356.80;;;;;;5035890;28;20022;-55
2021/07/06 07:08:20;;;;;;;11.00;4.15;;;716.80;1382.40;;;;;;5035496;28;20041;-54
2021/07/06 07:10:47;;;;;;;6.95;4.65;;;716.90;1356.80;;;;;;5035427;28;20037;-55
2021/07/06 07:13:14;;;;;;;18.90;6.47;;;716.90;1356.80;;;;;;5034497;28;20494;-55
2021/07/06 07:15:40;;;;;;;17.63;5.07;;;716.90;1331.20;;;;;;5035403;28;20080;-55
2021/07/06 07:18:06;;;;;;;17.60;5.15;;;717.00;1331.20;;;;;;5036016;28;20025;-55
2021/07/06 07:20:32;;;;;;;13.80;5.55;;;717.00;1331.20;;;;;;5036030;28;20029;-55
2021/07/06 07:22:58;;;;;;;21.13;6.07;;;717.20;1331.20;;;;;;5035763;28;20075;-55
2021/07/06 07:25:24;;;;;;;20.27;6.35;;;717.20;1331.20;;;;;;5035064;28;20125;-55
2021/07/06 07:27:50;;;;;;;25.35;5.93;;;717.30;1305.60;;;;;;5035610;28;20108;-55
2021/07/06 07:30:18;;;;;;;11.20;4.60;;;717.30;1305.60;;;;;;5035470;28;20037;-55
2021/07/06 07:32:45;;;;;;;9.02;4.10;;;717.40;1280.00;;;;;;5035538;28;20052;-56
2021/07/06 07:35:12;;;;;;;8.38;4.68;;;717.50;1305.60;;;;;;5035689;28;20025;-56
2021/07/06 07:37:38;;;;;;;13.25;4.88;;;717.50;1280.00;;;;;;5017639;28;20056;-56
2021/07/06 07:40:07;;;;;;;10.85;4.93;;;717.50;1280.00;;;;;;5035339;28;20112;-55
2021/07/06 07:42:33;;;;;;;9.60;4.03;;;717.50;1280.00;;;;;;5035230;28;20030;-55
2021/07/06 07:44:59;;;;;;;9.45;4.68;;;717.60;1254.40;;;;;;5035230;28;20028;-55
2021/07/06 07:47:25;;;;;;;7.47;4.25;;;717.70;1280.00;;;;;;5035201;28;20026;-55
2021/07/06 07:49:51;;;;;;;8.52;4.60;;;742.40;1305.60;;;;;;5035066;28;20033;-56
2021/07/06 07:52:17;;;;;;;12.38;4.18;;;742.40;1280.00;;;;;;5035379;28;20022;-56
2021/07/06 07:54:43;;;;;;;7.85;4.18;;;742.40;1280.00;;;;;;5035321;28;20049;-56
2021/07/06 07:57:10;;;;;;;6.53;3.40;;;742.50;1280.00;;;;;;5035017;28;20481;-56
2021/07/06 07:59:38;;;;;;;7.47;3.85;;;742.50;1203.20;;;;;;5034952;28;20029;-56
2021/07/06 08:02:04;;;;;;;7.22;3.70;;;742.40;1254.40;;;;;;5035218;28;20128;-56
2021/07/06 08:04:30;;;;;;;9.05;4.15;;;742.50;1228.80;;;;;;5034888;28;20056;-56
2021/07/06 08:06:56;;;;;;;6.55;3.80;;;742.50;1254.40;;;;;;5034793;28;20040;-56
2021/07/06 08:09:22;;;;;;;7.10;4.30;;;742.50;1254.40;;;;;;5034401;28;20046;-56
2021/07/06 08:11:48;;;;;;;7.35;4.20;;;742.50;1280.00;;;;;;5034765;28;20124;-55
2021/07/06 08:14:14;;;;;;;12.10;7.03;;;742.50;1254.40;;;;;;5034745;28;20017;-54
2021/07/06 08:16:40;;;;;;;5.75;3.60;;;742.50;1254.40;;;;;;5034626;28;20113;-55
2021/07/06 08:19:06;;;;;;;8.00;4.15;;;742.50;1280.00;;;;;;5034708;28;20022;-55
2021/07/06 08:21:32;;;;;;;12.32;3.95;;;742.50;1280.00;;;;;;5034896;28;20029;-55
2021/07/06 08:24:00;;;;;;;17.08;8.55;;;742.50;1280.00;;;;;;5034480;28;20048;-55
2021/07/06 08:26:27;;;;;;;13.35;5.45;;;742.50;1254.40;;;;;;5034438;28;20026;-55
2021/07/06 08:28:53;;;;;;;5.97;4.18;;;742.60;1254.40;;;;;;5034380;28;20025;-55
2021/07/06 08:31:19;;;;;;;14.40;5.22;;;742.60;1177.60;;;;;;5033349;28;20148;-50
2021/07/06 08:33:46;;;;;;;14.70;6.30;;;742.70;1228.80;;;;;;5034076;28;20046;-54
2021/07/06 08:36:12;;;;;;;11.48;5.80;;;742.70;1228.80;;;;;;5033053;28;20088;-50
2021/07/06 08:38:41;;;;;;;9.57;4.72;;;742.70;1228.80;;;;;;5033820;28;20108;-54
2021/07/06 08:41:07;;;;;;;10.57;5.95;;;742.80;1203.20;;;;;;5033671;28;20029;-55
2021/07/06 08:43:34;;;;;;;10.23;5.75;;;742.80;1228.80;;;;;;5033502;28;20017;-54
2021/07/06 08:46:01;;;;;;;15.57;6.65;;;742.90;1228.80;;;;;;5033467;28;20025;-54
2021/07/06 08:48:35;;;;;;;10.57;6.20;;;742.80;1203.20;;;;;;5033441;28;20021;-54
2021/07/06 08:51:02;;;;;;;8.93;5.78;;;742.80;1228.80;;;;;;5013669;28;20029;-52
2021/07/06 08:53:29;;;;;;;8.15;6.18;;;742.90;1177.60;;;;;;5033138;28;20025;-50
2021/07/06 08:55:57;;;;;;;17.02;6.53;;;743.00;1126.40;;;;;;5031900;28;20090;-51
2021/07/06 08:58:22;;;;;;;11.00;6.78;;;743.00;1152.00;;;;;;5033436;28;20071;-50
2021/07/06 09:00:48;;;;;;;11.75;6.90;;;743.00;1203.20;;;;;;5033394;28;20025;-47
2021/07/06 09:03:14;;;;;;;9.20;6.18;;;743.00;1203.20;;;;;;5033549;28;20033;-47
2021/07/06 09:05:40;;;;;;;9.73;5.90;;;743.00;1177.60;;;;;;5033291;28;20653;-51
2021/07/06 09:08:08;;;;;;;9.25;6.43;;;743.00;1177.60;;;;;;5033362;28;20079;-55
2021/07/06 09:10:39;;;;;;;10.23;5.78;;;743.00;1203.20;;;;;;5032966;28;20053;-54
2021/07/06 09:13:18;;;;;;;11.68;6.38;;;743.00;1203.20;;;;;;5033300;28;20017;-54
2021/07/06 09:15:53;;;;;;;7.53;6.22;;;743.00;1177.60;;;;;;5031249;28;20044;-50
2021/07/06 09:18:21;;;;;;;6.40;5.18;;;742.90;1228.80;;;;;;5030686;28;20021;-50
2021/07/06 09:21:02;;;;;;;11.98;5.70;;;742.90;1177.60;;;;;;5033119;28;20017;-55
2021/07/06 09:23:28;;;;;;;12.50;5.78;;;743.00;1203.20;;;;;;5032276;28;20021;-50
2021/07/06 09:26:21;;;;;;;11.65;5.63;;;743.00;1203.20;;;;;;5032917;28;20485;-54
2021/07/06 09:28:50;;;;;;;6.93;5.47;;;742.90;1228.80;;;;;;5033322;28;20025;-54
2021/07/06 09:31:32;;;;;;;10.52;5.82;;;742.80;1203.20;;;;;;5033281;28;20037;-55
2021/07/06 09:34:07;;;;;;;9.55;5.57;;;742.70;1228.80;;;;;;5032981;28;20033;-54
2021/07/06 09:36:52;;;;;;;10.00;5.97;;;742.70;1254.40;;;;;;5033276;28;20033;-53
2021/07/06 09:39:19;;;;;;;10.18;5.65;;;742.70;1203.20;;;;;;5033538;28;20378;-54
2021/07/06 09:42:02;;;;;;;12.15;6.10;;;742.70;1228.80;;;;;;5033052;28;20481;-54
2021/07/06 09:44:31;;;;;;;12.40;5.53;;;742.70;1203.20;;;;;;5031759;28;20035;-54
2021/07/06 09:47:08;;;;;;;8.57;5.15;;;742.70;1203.20;;;;;;5030154;28;20028;-53
2021/07/06 09:49:39;;;;;;;16.52;6.50;;;742.90;1177.60;;;;;;5036373;28;20033;-51
2021/07/06 09:52:16;;;;;;;13.25;6.57;;;743.00;1203.20;;;;;;5037075;28;20017;-55
2021/07/06 09:54:46;;;;;;;11.73;6.38;;;743.00;1203.20;;;;;;5037384;28;20573;-53
2021/07/06 09:57:27;;;;;;;18.20;6.63;;;743.00;1177.60;;;;;;5037330;28;20029;-53
2021/07/06 10:00:03;;;;;;;20.10;6.45;;;743.00;1203.20;;;;;;5037518;28;20129;-54
2021/07/06 10:02:31;;;;;;;19.73;6.68;;;743.00;1203.20;;;;;;5037303;28;20026;-52
2021/07/06 10:04:59;;;;;;;20.52;6.80;;;743.00;1203.20;;;;;;5037364;28;20025;-55
2021/07/06 10:07:26;;;;;;;16.00;6.72;;;743.00;1177.60;;;;;;5037004;28;20060;-53
2021/07/06 10:09:53;;;;;;;23.02;8.02;;;743.00;1203.20;;;;;;5036234;28;20128;-54
2021/07/06 10:12:21;;;;;;;28.70;7.72;;;743.00;1203.20;;;;;;5036665;28;20435;-53
2021/07/06 10:14:48;;;;;;;27.83;7.75;;;743.00;1203.20;;;;;;5036629;28;20351;-54
2021/07/06 10:17:14;;;;;;;29.38;8.55;;;743.00;1203.20;;;;;;5036854;28;20021;-54
2021/07/06 10:19:42;;;;;;;30.48;8.23;;;743.00;1203.20;;;;;;5034993;28;20492;-55
2021/07/06 10:22:09;;;;;;;14.95;5.93;;;743.00;1177.60;;;;;;5035753;28;20682;-54
2021/07/06 10:24:44;;;;;;;24.55;8.15;;;743.00;1126.40;;;;;;5018477;28;20029;-50
2021/07/06 10:27:26;;;;;;;22.55;8.05;;;743.00;1203.20;;;;;;5034447;28;20018;-55
2021/07/06 10:30:16;;;;;;;15.63;6.97;;;743.00;1177.60;;;;;;5016257;28;20029;-54
2021/07/06 10:32:52;;;;;;;12.60;6.88;;;742.90;1152.00;;;;;;5015254;28;20068;-53
2021/07/06 10:35:40;;;;;;;19.08;8.00;;;743.00;1177.60;;;;;;5034811;28;20108;-52
2021/07/06 10:38:39;;;;;;;17.95;7.53;;;743.00;1203.20;;;;;;5034846;28;20079;-53
2021/07/06 10:41:15;;;;;;;12.30;7.38;;;743.00;1177.60;;;;;;5034705;28;20014;-55
2021/07/06 10:43:44;;;;;;;14.32;7.30;;;743.00;1203.20;;;;;;5034079;28;20037;-53
2021/07/06 10:46:22;;;;;;;19.45;8.07;;;743.00;1203.20;;;;;;5035941;28;20037;-53
2021/07/06 10:49:14;;;;;;;13.60;7.10;;;743.00;1177.60;;;;;;5035049;28;20525;-55
2021/07/06 10:51:40;;;;;;;12.05;6.93;;;743.00;1177.60;;;;;;5036374;28;20041;-54
2021/07/06 10:54:19;;;;;;;11.63;7.85;;;743.10;1177.60;;;;;;5036497;28;20025;-55
2021/07/06 10:56:53;;;;;;;12.77;7.68;;;743.10;1203.20;;;;;;5035614;28;20485;-54
2021/07/06 10:59:21;;;;;;;13.48;8.10;;;743.10;1152.00;;;;;;5032266;28;20104;-53
2021/07/06 11:01:49;;;;;;;10.82;7.47;;;743.10;1177.60;;;;;;5035611;28;20382;-54
2021/07/06 11:04:42;;;;;;;9.30;7.38;;;743.10;1203.20;;;;;;5035720;28;20507;-54
2021/07/06 11:07:12;;;;;;;10.07;7.15;;;743.10;1177.60;;;;;;5034398;28;20030;-54
2021/07/06 11:09:38;;;;;;;13.07;7.60;;;743.10;1177.60;;;;;;5035605;28;20046;-54
2021/07/06 11:12:34;;;;;;;21.52;12.13;;;743.10;1177.60;;;;;;5035819;28;20036;-54
2021/07/06 11:15:19;;;;;;;20.30;11.45;;;743.20;1152.00;;;;;;5036096;28;20484;-53
2021/07/06 11:17:47;;;;;;;16.67;8.93;;;743.10;1152.00;;;;;;5035419;28;20064;-49
2021/07/06 11:20:17;;;;;;;18.83;10.27;;;743.20;1126.40;;;;;;5035252;28;20101;-55
2021/07/06 11:22:49;;;;;;;14.40;8.52;;;743.20;1152.00;;;;;;5035150;28;20470;-54
2021/07/06 11:25:36;;;;;;;12.40;7.95;;;743.20;1177.60;;;;;;5017494;28;20018;-51
2021/07/06 11:28:14;;;;;;;16.65;7.93;;;743.20;1177.60;;;;;;5034790;28;20077;-54
2021/07/06 11:30:59;;;;;;;20.73;7.47;;;743.20;1152.00;;;;;;5034849;28;20033;-51
2021/07/06 11:33:37;;;;;;;20.13;7.53;;;743.10;1177.60;;;;;;5032359;28;20022;-54
2021/07/06 11:36:04;;;;;;;23.85;9.13;;;743.20;1177.60;;;;;;5034842;28;20013;-54
2021/07/06 11:38:40;;;;;;;30.92;7.78;;;743.10;1177.60;;;;;;5034914;28;20025;-54
2021/07/06 11:41:08;;;;;;;16.73;7.97;;;743.10;1177.60;;;;;;5035425;28;20083;-54
2021/07/06 11:43:35;;;;;;;17.92;8.05;;;743.10;1152.00;;;;;;5035392;28;20028;-54
2021/07/06 11:46:02;;;;;;;12.07;7.78;;;743.10;1177.60;;;;;;5035316;28;20029;-54
2021/07/06 11:48:36;;;;;;;14.15;7.50;;;743.10;1177.60;;;;;;5035283;28;20564;-50
2021/07/06 11:51:16;;;;;;;13.43;7.45;;;743.10;1203.20;;;;;;5034868;28;20047;-54
2021/07/06 11:53:53;;;;;;;12.93;7.28;;;743.10;1152.00;;;;;;5035652;28;20024;-54
2021/07/06 11:56:26;;;;;;;20.95;7.80;;;743.10;1203.20;;;;;;5035357;28;20569;-52
2021/07/06 11:58:53;;;;;;;15.65;7.20;;;743.10;1177.60;;;;;;5035061;28;20017;-53
2021/07/06 12:01:19;;;;;;;12.25;7.72;;;743.10;1177.60;;;;;;5035140;28;20545;-54
2021/07/06 12:03:46;;;;;;;10.10;6.90;;;743.10;1203.20;;;;;;5034986;28;20378;-51
2021/07/06 12:06:18;;;;;;;21.88;7.43;;;743.10;1203.20;;;;;;5034148;28;20018;-55
2021/07/06 12:08:46;;;;;;;27.45;8.15;;;743.10;1203.20;;;;;;5032160;28;20120;-55
2021/07/06 12:11:16;;;;;;;16.40;7.32;;;743.00;1203.20;;;;;;5034088;28;20443;-55
2021/07/06 12:13:42;;;;;;;12.00;6.95;;;743.00;1177.60;;;;;;5031867;28;20040;-53
2021/07/06 12:16:16;;;;;;;30.73;7.82;;;743.00;1177.60;;;;;;5034163;28;20040;-55
2021/07/06 12:19:00;;;;;;;9.18;6.55;;;743.00;1203.20;;;;;;5031779;28;20101;-54